sensor_id;sensor_type;location;lat;lon;timestamp;P1;durP1;ratioP1;P2;durP2;ratioP2
73776;SDS011;62088;50.240;2.696;2023-04-26T00:01:58;5.50;;;2.78;;
73776;SDS011;62088;50.240;2.696;2023-04-26T00:04:25;6.55;;;3.00;;
73776;SDS011;62088;50.240;2.696;2023-04-26T00:06:54;6.78;;;3.60;;
73776;SDS011;62088;50.240;2.696;2023-04-26T00:09:22;7.75;;;2.55;;
73776;SDS011;62088;50.240;2.696;2023-04-26T00:11:49;4.13;;;2.15;;
73776;SDS011;62088;50.240;2.696;2023-04-26T00:14:16;7.47;;;2.63;;
73776;SDS011;62088;50.240;2.696;2023-04-26T00:16:43;4.75;;;2.55;;
73776;SDS011;62088;50.240;2.696;2023-04-26T00:19:11;6.32;;;2.97;;
73776;SDS011;62088;50.240;2.696;2023-04-26T00:21:38;4.68;;;2.35;;
73776;SDS011;62088;50.240;2.696;2023-04-26T00:24:05;4.55;;;2.13;;
73776;SDS011;62088;50.240;2.696;2023-04-26T00:26:33;5.70;;;2.63;;
73776;SDS011;62088;50.240;2.696;2023-04-26T00:29:00;5.25;;;2.50;;
73776;SDS011;62088;50.240;2.696;2023-04-26T00:31:29;5.30;;;2.15;;
73776;SDS011;62088;50.240;2.696;2023-04-26T00:33:56;5.85;;;2.03;;
73776;SDS011;62088;50.240;2.696;2023-04-26T00:36:23;8.77;;;2.70;;
73776;SDS011;62088;50.240;2.696;2023-04-26T00:38:51;8.52;;;3.08;;
73776;SDS011;62088;50.240;2.696;2023-04-26T00:41:18;6.15;;;2.55;;
73776;SDS011;62088;50.240;2.696;2023-04-26T00:43:45;4.70;;;2.55;;
73776;SDS011;62088;50.240;2.696;2023-04-26T00:46:12;5.68;;;3.00;;
73776;SDS011;62088;50.240;2.696;2023-04-26T00:48:39;4.72;;;2.33;;
73776;SDS011;62088;50.240;2.696;2023-04-26T00:51:07;3.75;;;2.05;;
73776;SDS011;62088;50.240;2.696;2023-04-26T00:53:35;5.85;;;2.70;;
73776;SDS011;62088;50.240;2.696;2023-04-26T00:56:02;5.47;;;2.20;;
73776;SDS011;62088;50.240;2.696;2023-04-26T00:58:32;5.13;;;2.55;;
73776;SDS011;62088;50.240;2.696;2023-04-26T01:00:59;5.38;;;2.42;;
73776;SDS011;62088;50.240;2.696;2023-04-26T01:03:26;7.82;;;2.38;;
73776;SDS011;62088;50.240;2.696;2023-04-26T01:05:53;4.57;;;2.47;;
73776;SDS011;62088;50.240;2.696;2023-04-26T01:08:21;10.82;;;2.95;;
73776;SDS011;62088;50.240;2.696;2023-04-26T01:10:49;5.75;;;2.70;;
73776;SDS011;62088;50.240;2.696;2023-04-26T01:13:17;7.43;;;2.75;;
73776;SDS011;62088;50.240;2.696;2023-04-26T01:15:45;4.35;;;2.00;;
73776;SDS011;62088;50.240;2.696;2023-04-26T01:18:13;6.13;;;2.60;;
73776;SDS011;62088;50.240;2.696;2023-04-26T01:20:40;5.13;;;2.28;;
73776;SDS011;62088;50.240;2.696;2023-04-26T01:23:08;4.80;;;2.42;;
73776;SDS011;62088;50.240;2.696;2023-04-26T01:25:37;6.47;;;2.80;;
73776;SDS011;62088;50.240;2.696;2023-04-26T01:28:04;6.18;;;2.53;;
73776;SDS011;62088;50.240;2.696;2023-04-26T01:30:31;7.18;;;2.28;;
73776;SDS011;62088;50.240;2.696;2023-04-26T01:33:01;6.43;;;2.75;;
73776;SDS011;62088;50.240;2.696;2023-04-26T01:35:29;8.07;;;3.25;;
73776;SDS011;62088;50.240;2.696;2023-04-26T01:37:56;12.93;;;3.15;;
73776;SDS011;62088;50.240;2.696;2023-04-26T01:40:23;4.90;;;2.15;;
73776;SDS011;62088;50.240;2.696;2023-04-26T01:42:50;10.75;;;2.63;;
73776;SDS011;62088;50.240;2.696;2023-04-26T01:45:17;5.88;;;2.15;;
73776;SDS011;62088;50.240;2.696;2023-04-26T01:48:02;5.72;;;2.53;;
73776;SDS011;62088;50.240;2.696;2023-04-26T01:50:30;6.03;;;2.78;;
73776;SDS011;62088;50.240;2.696;2023-04-26T01:52:58;4.07;;;2.10;;
73776;SDS011;62088;50.240;2.696;2023-04-26T01:55:25;6.00;;;2.45;;
73776;SDS011;62088;50.240;2.696;2023-04-26T01:57:52;7.82;;;2.22;;
73776;SDS011;62088;50.240;2.696;2023-04-26T02:00:19;6.50;;;2.80;;
73776;SDS011;62088;50.240;2.696;2023-04-26T02:02:47;5.10;;;2.50;;
73776;SDS011;62088;50.240;2.696;2023-04-26T02:05:15;5.13;;;2.40;;
73776;SDS011;62088;50.240;2.696;2023-04-26T02:07:42;4.25;;;1.65;;
73776;SDS011;62088;50.240;2.696;2023-04-26T02:10:09;3.70;;;1.88;;
73776;SDS011;62088;50.240;2.696;2023-04-26T02:12:36;8.45;;;2.42;;
73776;SDS011;62088;50.240;2.696;2023-04-26T02:15:03;6.43;;;2.25;;
73776;SDS011;62088;50.240;2.696;2023-04-26T02:17:32;6.05;;;2.47;;
73776;SDS011;62088;50.240;2.696;2023-04-26T02:20:00;6.97;;;2.30;;
73776;SDS011;62088;50.240;2.696;2023-04-26T02:22:27;5.93;;;2.60;;
73776;SDS011;62088;50.240;2.696;2023-04-26T02:24:55;5.47;;;2.33;;
73776;SDS011;62088;50.240;2.696;2023-04-26T02:27:25;5.78;;;2.38;;
73776;SDS011;62088;50.240;2.696;2023-04-26T02:29:53;5.80;;;2.70;;
73776;SDS011;62088;50.240;2.696;2023-04-26T02:32:20;6.05;;;3.42;;
73776;SDS011;62088;50.240;2.696;2023-04-26T02:34:47;5.57;;;2.67;;
73776;SDS011;62088;50.240;2.696;2023-04-26T02:37:14;4.85;;;2.33;;
73776;SDS011;62088;50.240;2.696;2023-04-26T02:39:42;5.50;;;2.97;;
73776;SDS011;62088;50.240;2.696;2023-04-26T02:42:09;4.43;;;2.35;;
73776;SDS011;62088;50.240;2.696;2023-04-26T02:44:36;5.60;;;1.90;;
73776;SDS011;62088;50.240;2.696;2023-04-26T02:47:05;4.25;;;2.17;;
73776;SDS011;62088;50.240;2.696;2023-04-26T02:49:33;5.10;;;2.60;;
73776;SDS011;62088;50.240;2.696;2023-04-26T02:52:00;5.15;;;2.00;;
73776;SDS011;62088;50.240;2.696;2023-04-26T02:54:28;6.50;;;2.53;;
73776;SDS011;62088;50.240;2.696;2023-04-26T02:56:55;6.18;;;2.70;;
73776;SDS011;62088;50.240;2.696;2023-04-26T02:59:23;8.98;;;3.25;;
73776;SDS011;62088;50.240;2.696;2023-04-26T03:01:50;8.05;;;2.72;;
73776;SDS011;62088;50.240;2.696;2023-04-26T03:04:17;7.35;;;2.30;;
73776;SDS011;62088;50.240;2.696;2023-04-26T03:06:45;5.07;;;2.30;;
73776;SDS011;62088;50.240;2.696;2023-04-26T03:09:12;5.40;;;2.58;;
73776;SDS011;62088;50.240;2.696;2023-04-26T03:11:39;9.88;;;2.40;;
73776;SDS011;62088;50.240;2.696;2023-04-26T03:14:06;4.45;;;2.20;;
73776;SDS011;62088;50.240;2.696;2023-04-26T03:16:39;7.15;;;2.53;;
73776;SDS011;62088;50.240;2.696;2023-04-26T03:19:08;6.63;;;2.38;;
73776;SDS011;62088;50.240;2.696;2023-04-26T03:21:37;5.60;;;2.50;;
73776;SDS011;62088;50.240;2.696;2023-04-26T03:24:04;7.75;;;2.60;;
73776;SDS011;62088;50.240;2.696;2023-04-26T03:26:32;4.07;;;2.20;;
73776;SDS011;62088;50.240;2.696;2023-04-26T03:28:59;6.38;;;2.30;;
73776;SDS011;62088;50.240;2.696;2023-04-26T03:31:27;5.85;;;2.40;;
73776;SDS011;62088;50.240;2.696;2023-04-26T03:33:54;5.07;;;2.55;;
73776;SDS011;62088;50.240;2.696;2023-04-26T03:36:21;4.10;;;2.28;;
73776;SDS011;62088;50.240;2.696;2023-04-26T03:38:48;3.95;;;1.90;;
73776;SDS011;62088;50.240;2.696;2023-04-26T03:41:17;4.78;;;2.22;;
73776;SDS011;62088;50.240;2.696;2023-04-26T03:43:44;7.50;;;2.47;;
73776;SDS011;62088;50.240;2.696;2023-04-26T03:46:11;5.75;;;2.17;;
73776;SDS011;62088;50.240;2.696;2023-04-26T03:48:38;7.28;;;2.30;;
73776;SDS011;62088;50.240;2.696;2023-04-26T03:51:06;5.22;;;2.25;;
73776;SDS011;62088;50.240;2.696;2023-04-26T03:53:33;4.40;;;2.03;;
73776;SDS011;62088;50.240;2.696;2023-04-26T03:56:00;3.85;;;1.73;;
73776;SDS011;62088;50.240;2.696;2023-04-26T03:58:29;4.45;;;1.95;;
73776;SDS011;62088;50.240;2.696;2023-04-26T04:00:56;2.97;;;1.40;;
73776;SDS011;62088;50.240;2.696;2023-04-26T04:03:26;3.88;;;1.65;;
73776;SDS011;62088;50.240;2.696;2023-04-26T04:05:56;4.35;;;2.13;;
73776;SDS011;62088;50.240;2.696;2023-04-26T04:08:23;5.05;;;1.90;;
73776;SDS011;62088;50.240;2.696;2023-04-26T04:10:50;4.03;;;2.08;;
73776;SDS011;62088;50.240;2.696;2023-04-26T04:13:17;3.72;;;1.80;;
73776;SDS011;62088;50.240;2.696;2023-04-26T04:15:45;4.40;;;1.98;;
73776;SDS011;62088;50.240;2.696;2023-04-26T04:18:12;4.43;;;2.08;;
73776;SDS011;62088;50.240;2.696;2023-04-26T04:20:40;4.55;;;2.55;;
73776;SDS011;62088;50.240;2.696;2023-04-26T04:23:07;14.55;;;2.08;;
73776;SDS011;62088;50.240;2.696;2023-04-26T04:25:37;4.45;;;1.75;;
73776;SDS011;62088;50.240;2.696;2023-04-26T04:28:07;6.15;;;2.95;;
73776;SDS011;62088;50.240;2.696;2023-04-26T04:30:35;4.78;;;2.42;;
73776;SDS011;62088;50.240;2.696;2023-04-26T04:33:02;3.50;;;1.90;;
73776;SDS011;62088;50.240;2.696;2023-04-26T04:35:32;4.35;;;2.20;;
73776;SDS011;62088;50.240;2.696;2023-04-26T04:38:02;7.22;;;2.72;;
73776;SDS011;62088;50.240;2.696;2023-04-26T04:40:30;5.47;;;2.30;;
73776;SDS011;62088;50.240;2.696;2023-04-26T04:42:58;4.43;;;1.75;;
73776;SDS011;62088;50.240;2.696;2023-04-26T04:45:28;4.72;;;2.00;;
73776;SDS011;62088;50.240;2.696;2023-04-26T04:47:56;5.53;;;2.25;;
73776;SDS011;62088;50.240;2.696;2023-04-26T04:50:25;4.60;;;2.00;;
73776;SDS011;62088;50.240;2.696;2023-04-26T04:52:52;4.95;;;2.65;;
73776;SDS011;62088;50.240;2.696;2023-04-26T04:55:20;5.38;;;2.30;;
73776;SDS011;62088;50.240;2.696;2023-04-26T04:57:47;6.90;;;3.45;;
73776;SDS011;62088;50.240;2.696;2023-04-26T05:00:14;5.88;;;3.50;;
73776;SDS011;62088;50.240;2.696;2023-04-26T05:02:49;5.45;;;2.95;;
73776;SDS011;62088;50.240;2.696;2023-04-26T05:05:17;5.82;;;3.13;;
73776;SDS011;62088;50.240;2.696;2023-04-26T05:07:44;6.32;;;3.47;;
73776;SDS011;62088;50.240;2.696;2023-04-26T05:10:11;7.32;;;3.53;;
73776;SDS011;62088;50.240;2.696;2023-04-26T05:12:39;6.38;;;2.67;;
73776;SDS011;62088;50.240;2.696;2023-04-26T05:15:06;7.85;;;3.38;;
73776;SDS011;62088;50.240;2.696;2023-04-26T05:17:34;6.28;;;3.35;;
73776;SDS011;62088;50.240;2.696;2023-04-26T05:20:15;7.28;;;2.83;;
73776;SDS011;62088;50.240;2.696;2023-04-26T05:22:42;6.18;;;3.10;;
73776;SDS011;62088;50.240;2.696;2023-04-26T05:25:10;5.82;;;2.90;;
73776;SDS011;62088;50.240;2.696;2023-04-26T05:27:39;6.07;;;2.88;;
73776;SDS011;62088;50.240;2.696;2023-04-26T05:30:26;6.63;;;2.70;;
73776;SDS011;62088;50.240;2.696;2023-04-26T05:33:10;9.30;;;3.28;;
73776;SDS011;62088;50.240;2.696;2023-04-26T05:35:47;7.05;;;2.85;;
73776;SDS011;62088;50.240;2.696;2023-04-26T05:38:14;6.57;;;2.65;;
73776;SDS011;62088;50.240;2.696;2023-04-26T05:40:42;6.10;;;2.83;;
73776;SDS011;62088;50.240;2.696;2023-04-26T05:43:09;7.60;;;3.05;;
73776;SDS011;62088;50.240;2.696;2023-04-26T05:45:37;6.60;;;3.08;;
73776;SDS011;62088;50.240;2.696;2023-04-26T05:48:05;8.13;;;4.25;;
73776;SDS011;62088;50.240;2.696;2023-04-26T05:50:32;7.15;;;3.42;;
73776;SDS011;62088;50.240;2.696;2023-04-26T05:52:59;6.88;;;3.75;;
73776;SDS011;62088;50.240;2.696;2023-04-26T05:55:27;8.48;;;4.13;;
73776;SDS011;62088;50.240;2.696;2023-04-26T05:57:55;9.10;;;4.47;;
73776;SDS011;62088;50.240;2.696;2023-04-26T06:00:22;6.60;;;3.53;;
73776;SDS011;62088;50.240;2.696;2023-04-26T06:02:49;13.45;;;4.47;;
73776;SDS011;62088;50.240;2.696;2023-04-26T06:05:17;6.35;;;3.35;;
73776;SDS011;62088;50.240;2.696;2023-04-26T06:07:45;9.35;;;4.03;;
73776;SDS011;62088;50.240;2.696;2023-04-26T06:10:12;9.07;;;4.45;;
73776;SDS011;62088;50.240;2.696;2023-04-26T06:12:40;11.35;;;3.85;;
73776;SDS011;62088;50.240;2.696;2023-04-26T06:15:07;7.93;;;4.22;;
73776;SDS011;62088;50.240;2.696;2023-04-26T06:17:36;7.90;;;3.80;;
73776;SDS011;62088;50.240;2.696;2023-04-26T06:20:04;8.02;;;3.97;;
73776;SDS011;62088;50.240;2.696;2023-04-26T06:22:31;12.55;;;4.57;;
73776;SDS011;62088;50.240;2.696;2023-04-26T06:24:58;11.65;;;4.72;;
73776;SDS011;62088;50.240;2.696;2023-04-26T06:27:26;13.80;;;5.20;;
73776;SDS011;62088;50.240;2.696;2023-04-26T06:29:53;10.88;;;5.03;;
73776;SDS011;62088;50.240;2.696;2023-04-26T06:32:22;9.63;;;4.55;;
73776;SDS011;62088;50.240;2.696;2023-04-26T06:34:49;14.23;;;5.03;;
73776;SDS011;62088;50.240;2.696;2023-04-26T06:37:16;12.13;;;5.13;;
73776;SDS011;62088;50.240;2.696;2023-04-26T06:39:43;9.75;;;4.97;;
73776;SDS011;62088;50.240;2.696;2023-04-26T06:42:11;10.75;;;5.43;;
73776;SDS011;62088;50.240;2.696;2023-04-26T06:45:03;8.95;;;4.97;;
73776;SDS011;62088;50.240;2.696;2023-04-26T06:47:32;12.15;;;5.28;;
73776;SDS011;62088;50.240;2.696;2023-04-26T06:49:59;15.98;;;6.78;;
73776;SDS011;62088;50.240;2.696;2023-04-26T06:52:26;10.02;;;4.72;;
73776;SDS011;62088;50.240;2.696;2023-04-26T06:54:55;10.32;;;5.65;;
73776;SDS011;62088;50.240;2.696;2023-04-26T06:57:23;8.75;;;4.30;;
73776;SDS011;62088;50.240;2.696;2023-04-26T06:59:50;14.45;;;7.40;;
73776;SDS011;62088;50.240;2.696;2023-04-26T07:02:17;12.43;;;5.10;;
73776;SDS011;62088;50.240;2.696;2023-04-26T07:04:44;17.45;;;6.32;;
73776;SDS011;62088;50.240;2.696;2023-04-26T07:07:12;8.30;;;4.65;;
73776;SDS011;62088;50.240;2.696;2023-04-26T07:09:40;10.80;;;4.60;;
73776;SDS011;62088;50.240;2.696;2023-04-26T07:12:11;15.93;;;5.00;;
73776;SDS011;62088;50.240;2.696;2023-04-26T07:14:38;9.13;;;4.35;;
73776;SDS011;62088;50.240;2.696;2023-04-26T07:17:06;8.38;;;4.47;;
73776;SDS011;62088;50.240;2.696;2023-04-26T07:19:33;10.57;;;4.60;;
73776;SDS011;62088;50.240;2.696;2023-04-26T07:22:00;6.47;;;3.50;;
73776;SDS011;62088;50.240;2.696;2023-04-26T07:24:28;13.18;;;3.72;;
73776;SDS011;62088;50.240;2.696;2023-04-26T07:26:55;8.85;;;3.63;;
73776;SDS011;62088;50.240;2.696;2023-04-26T07:29:22;10.77;;;4.65;;
73776;SDS011;62088;50.240;2.696;2023-04-26T07:31:51;9.02;;;4.22;;
73776;SDS011;62088;50.240;2.696;2023-04-26T07:34:18;13.13;;;5.22;;
73776;SDS011;62088;50.240;2.696;2023-04-26T07:36:45;7.05;;;4.18;;
73776;SDS011;62088;50.240;2.696;2023-04-26T07:39:13;7.72;;;3.72;;
73776;SDS011;62088;50.240;2.696;2023-04-26T07:41:40;9.05;;;4.05;;
73776;SDS011;62088;50.240;2.696;2023-04-26T07:44:09;8.52;;;2.85;;
73776;SDS011;62088;50.240;2.696;2023-04-26T07:46:36;9.73;;;3.60;;
73776;SDS011;62088;50.240;2.696;2023-04-26T07:49:03;10.18;;;4.53;;
73776;SDS011;62088;50.240;2.696;2023-04-26T07:51:31;12.38;;;6.40;;
73776;SDS011;62088;50.240;2.696;2023-04-26T07:53:58;11.75;;;5.03;;
73776;SDS011;62088;50.240;2.696;2023-04-26T07:56:25;12.77;;;5.43;;
73776;SDS011;62088;50.240;2.696;2023-04-26T07:58:52;6.45;;;3.55;;
73776;SDS011;62088;50.240;2.696;2023-04-26T08:01:19;10.65;;;4.68;;
73776;SDS011;62088;50.240;2.696;2023-04-26T08:03:47;9.75;;;4.47;;
73776;SDS011;62088;50.240;2.696;2023-04-26T08:06:14;15.13;;;7.38;;
73776;SDS011;62088;50.240;2.696;2023-04-26T08:08:43;9.55;;;4.47;;
73776;SDS011;62088;50.240;2.696;2023-04-26T08:11:14;13.55;;;6.75;;
73776;SDS011;62088;50.240;2.696;2023-04-26T08:13:41;8.13;;;4.00;;
73776;SDS011;62088;50.240;2.696;2023-04-26T08:16:09;9.40;;;4.68;;
73776;SDS011;62088;50.240;2.696;2023-04-26T08:18:36;11.93;;;5.90;;
73776;SDS011;62088;50.240;2.696;2023-04-26T08:21:03;14.40;;;6.15;;
73776;SDS011;62088;50.240;2.696;2023-04-26T08:23:34;8.98;;;4.30;;
73776;SDS011;62088;50.240;2.696;2023-04-26T08:26:02;10.75;;;5.35;;
73776;SDS011;62088;50.240;2.696;2023-04-26T08:28:29;12.25;;;6.82;;
73776;SDS011;62088;50.240;2.696;2023-04-26T08:30:56;10.75;;;4.47;;
73776;SDS011;62088;50.240;2.696;2023-04-26T08:33:24;10.90;;;5.90;;
73776;SDS011;62088;50.240;2.696;2023-04-26T08:35:51;9.70;;;4.13;;
73776;SDS011;62088;50.240;2.696;2023-04-26T08:38:18;10.88;;;6.45;;
73776;SDS011;62088;50.240;2.696;2023-04-26T08:40:48;10.15;;;4.55;;
73776;SDS011;62088;50.240;2.696;2023-04-26T08:43:16;13.23;;;5.20;;
73776;SDS011;62088;50.240;2.696;2023-04-26T08:45:44;8.45;;;3.65;;
73776;SDS011;62088;50.240;2.696;2023-04-26T08:48:12;12.65;;;5.50;;
73776;SDS011;62088;50.240;2.696;2023-04-26T08:50:44;10.30;;;5.20;;
73776;SDS011;62088;50.240;2.696;2023-04-26T08:53:14;9.75;;;4.57;;
73776;SDS011;62088;50.240;2.696;2023-04-26T08:55:46;8.95;;;4.57;;
73776;SDS011;62088;50.240;2.696;2023-04-26T08:58:16;11.55;;;5.22;;
73776;SDS011;62088;50.240;2.696;2023-04-26T09:00:43;8.65;;;4.30;;
73776;SDS011;62088;50.240;2.696;2023-04-26T09:03:11;8.68;;;4.75;;
73776;SDS011;62088;50.240;2.696;2023-04-26T09:05:39;9.23;;;4.07;;
73776;SDS011;62088;50.240;2.696;2023-04-26T09:08:14;12.60;;;4.80;;
73776;SDS011;62088;50.240;2.696;2023-04-26T09:10:45;8.32;;;3.78;;
73776;SDS011;62088;50.240;2.696;2023-04-26T09:13:12;10.48;;;4.13;;
73776;SDS011;62088;50.240;2.696;2023-04-26T09:15:40;9.88;;;4.28;;
73776;SDS011;62088;50.240;2.696;2023-04-26T09:18:20;9.77;;;4.90;;
73776;SDS011;62088;50.240;2.696;2023-04-26T09:21:07;11.57;;;4.70;;
73776;SDS011;62088;50.240;2.696;2023-04-26T09:23:34;6.57;;;3.88;;
73776;SDS011;62088;50.240;2.696;2023-04-26T09:26:15;9.02;;;3.85;;
73776;SDS011;62088;50.240;2.696;2023-04-26T09:28:46;7.60;;;3.10;;
73776;SDS011;62088;50.240;2.696;2023-04-26T09:34:04;8.75;;;4.13;;
73776;SDS011;62088;50.240;2.696;2023-04-26T09:36:31;9.73;;;4.22;;
73776;SDS011;62088;50.240;2.696;2023-04-26T09:39:11;15.00;;;11.07;;
73776;SDS011;62088;50.240;2.696;2023-04-26T09:41:42;8.38;;;4.05;;
73776;SDS011;62088;50.240;2.696;2023-04-26T09:44:22;8.10;;;3.30;;
73776;SDS011;62088;50.240;2.696;2023-04-26T09:47:06;13.82;;;5.68;;
73776;SDS011;62088;50.240;2.696;2023-04-26T09:52:12;8.98;;;4.60;;
73776;SDS011;62088;50.240;2.696;2023-04-26T09:54:43;8.70;;;4.18;;
73776;SDS011;62088;50.240;2.696;2023-04-26T09:57:15;6.78;;;3.67;;
73776;SDS011;62088;50.240;2.696;2023-04-26T09:59:45;6.18;;;2.85;;
73776;SDS011;62088;50.240;2.696;2023-04-26T10:02:21;6.28;;;2.95;;
73776;SDS011;62088;50.240;2.696;2023-04-26T10:04:54;8.18;;;5.38;;
73776;SDS011;62088;50.240;2.696;2023-04-26T10:07:23;8.50;;;3.65;;
73776;SDS011;62088;50.240;2.696;2023-04-26T10:09:51;6.07;;;3.30;;
73776;SDS011;62088;50.240;2.696;2023-04-26T10:12:21;8.68;;;3.63;;
73776;SDS011;62088;50.240;2.696;2023-04-26T10:14:48;7.15;;;3.00;;
73776;SDS011;62088;50.240;2.696;2023-04-26T10:17:15;7.38;;;3.00;;
73776;SDS011;62088;50.240;2.696;2023-04-26T10:19:44;8.05;;;3.03;;
73776;SDS011;62088;50.240;2.696;2023-04-26T10:22:19;7.50;;;3.30;;
73776;SDS011;62088;50.240;2.696;2023-04-26T10:24:50;6.32;;;3.00;;
73776;SDS011;62088;50.240;2.696;2023-04-26T10:30:08;8.48;;;4.00;;
73776;SDS011;62088;50.240;2.696;2023-04-26T10:35:19;6.97;;;2.97;;
73776;SDS011;62088;50.240;2.696;2023-04-26T10:40:44;7.05;;;3.90;;
73776;SDS011;62088;50.240;2.696;2023-04-26T10:45:42;11.65;;;4.07;;
73776;SDS011;62088;50.240;2.696;2023-04-26T10:53:33;6.47;;;3.17;;
73776;SDS011;62088;50.240;2.696;2023-04-26T10:56:09;6.50;;;3.42;;
73776;SDS011;62088;50.240;2.696;2023-04-26T10:58:39;6.72;;;3.30;;
73776;SDS011;62088;50.240;2.696;2023-04-26T11:01:16;8.32;;;3.40;;
73776;SDS011;62088;50.240;2.696;2023-04-26T11:06:24;8.15;;;3.88;;
73776;SDS011;62088;50.240;2.696;2023-04-26T11:08:54;6.10;;;3.20;;
73776;SDS011;62088;50.240;2.696;2023-04-26T11:11:24;8.93;;;3.65;;
73776;SDS011;62088;50.240;2.696;2023-04-26T11:13:52;9.63;;;3.50;;
73776;SDS011;62088;50.240;2.696;2023-04-26T11:16:19;6.63;;;3.65;;
73776;SDS011;62088;50.240;2.696;2023-04-26T11:18:46;7.65;;;3.30;;
73776;SDS011;62088;50.240;2.696;2023-04-26T11:21:13;7.43;;;3.17;;
73776;SDS011;62088;50.240;2.696;2023-04-26T11:23:53;8.88;;;3.40;;
73776;SDS011;62088;50.240;2.696;2023-04-26T11:26:21;11.55;;;3.90;;
73776;SDS011;62088;50.240;2.696;2023-04-26T11:28:48;8.55;;;3.20;;
73776;SDS011;62088;50.240;2.696;2023-04-26T11:31:17;9.32;;;3.88;;
73776;SDS011;62088;50.240;2.696;2023-04-26T11:33:44;8.05;;;3.25;;
73776;SDS011;62088;50.240;2.696;2023-04-26T11:36:16;7.85;;;3.35;;
73776;SDS011;62088;50.240;2.696;2023-04-26T11:38:45;6.38;;;3.45;;
73776;SDS011;62088;50.240;2.696;2023-04-26T11:41:12;8.85;;;3.60;;
73776;SDS011;62088;50.240;2.696;2023-04-26T11:43:39;8.43;;;3.72;;
73776;SDS011;62088;50.240;2.696;2023-04-26T11:46:06;6.65;;;3.25;;
73776;SDS011;62088;50.240;2.696;2023-04-26T11:48:35;8.25;;;3.58;;
73776;SDS011;62088;50.240;2.696;2023-04-26T11:51:04;7.97;;;3.40;;
73776;SDS011;62088;50.240;2.696;2023-04-26T11:53:39;6.93;;;3.05;;
73776;SDS011;62088;50.240;2.696;2023-04-26T11:56:14;8.10;;;3.05;;
73776;SDS011;62088;50.240;2.696;2023-04-26T11:58:43;6.85;;;3.35;;
73776;SDS011;62088;50.240;2.696;2023-04-26T12:03:57;7.78;;;3.00;;
73776;SDS011;62088;50.240;2.696;2023-04-26T12:06:29;6.65;;;3.20;;
73776;SDS011;62088;50.240;2.696;2023-04-26T12:09:09;7.15;;;3.22;;
73776;SDS011;62088;50.240;2.696;2023-04-26T12:11:39;7.43;;;2.83;;
73776;SDS011;62088;50.240;2.696;2023-04-26T12:14:06;6.40;;;3.08;;
73776;SDS011;62088;50.240;2.696;2023-04-26T12:16:35;7.70;;;3.25;;
73776;SDS011;62088;50.240;2.696;2023-04-26T12:19:03;9.18;;;3.33;;
73776;SDS011;62088;50.240;2.696;2023-04-26T12:21:42;8.70;;;3.33;;
73776;SDS011;62088;50.240;2.696;2023-04-26T12:24:22;5.90;;;2.85;;
73776;SDS011;62088;50.240;2.696;2023-04-26T12:26:50;8.82;;;3.47;;
73776;SDS011;62088;50.240;2.696;2023-04-26T12:29:18;4.93;;;2.55;;
73776;SDS011;62088;50.240;2.696;2023-04-26T12:31:45;6.68;;;2.83;;
73776;SDS011;62088;50.240;2.696;2023-04-26T12:34:13;8.40;;;3.10;;
73776;SDS011;62088;50.240;2.696;2023-04-26T12:36:40;5.78;;;2.88;;
73776;SDS011;62088;50.240;2.696;2023-04-26T12:39:10;6.20;;;2.70;;
73776;SDS011;62088;50.240;2.696;2023-04-26T12:41:39;8.75;;;3.30;;
73776;SDS011;62088;50.240;2.696;2023-04-26T12:44:07;7.75;;;3.33;;
73776;SDS011;62088;50.240;2.696;2023-04-26T12:46:34;6.95;;;3.22;;
73776;SDS011;62088;50.240;2.696;2023-04-26T12:49:02;8.52;;;3.60;;
73776;SDS011;62088;50.240;2.696;2023-04-26T12:51:29;7.15;;;3.13;;
73776;SDS011;62088;50.240;2.696;2023-04-26T12:53:59;5.85;;;2.78;;
73776;SDS011;62088;50.240;2.696;2023-04-26T12:56:27;6.57;;;3.05;;
73776;SDS011;62088;50.240;2.696;2023-04-26T12:58:55;6.95;;;3.25;;
73776;SDS011;62088;50.240;2.696;2023-04-26T13:01:22;5.72;;;2.83;;
73776;SDS011;62088;50.240;2.696;2023-04-26T13:03:49;9.02;;;3.30;;
73776;SDS011;62088;50.240;2.696;2023-04-26T13:06:17;6.50;;;2.90;;
73776;SDS011;62088;50.240;2.696;2023-04-26T13:08:44;6.68;;;3.00;;
73776;SDS011;62088;50.240;2.696;2023-04-26T13:11:11;7.38;;;3.15;;
73776;SDS011;62088;50.240;2.696;2023-04-26T13:13:38;7.18;;;3.35;;
73776;SDS011;62088;50.240;2.696;2023-04-26T13:16:09;6.22;;;3.35;;
73776;SDS011;62088;50.240;2.696;2023-04-26T13:18:38;8.18;;;3.15;;
73776;SDS011;62088;50.240;2.696;2023-04-26T13:21:06;8.30;;;3.08;;
73776;SDS011;62088;50.240;2.696;2023-04-26T13:23:33;5.70;;;2.70;;
73776;SDS011;62088;50.240;2.696;2023-04-26T13:26:00;6.18;;;2.75;;
73776;SDS011;62088;50.240;2.696;2023-04-26T13:28:27;7.88;;;3.13;;
73776;SDS011;62088;50.240;2.696;2023-04-26T13:30:54;7.43;;;2.75;;
73776;SDS011;62088;50.240;2.696;2023-04-26T13:33:21;7.68;;;3.00;;
73776;SDS011;62088;50.240;2.696;2023-04-26T13:35:48;7.60;;;3.53;;
73776;SDS011;62088;50.240;2.696;2023-04-26T13:38:15;10.45;;;3.78;;
73776;SDS011;62088;50.240;2.696;2023-04-26T13:40:43;8.10;;;2.80;;
73776;SDS011;62088;50.240;2.696;2023-04-26T13:43:10;9.18;;;3.45;;
73776;SDS011;62088;50.240;2.696;2023-04-26T13:45:37;6.40;;;2.90;;
73776;SDS011;62088;50.240;2.696;2023-04-26T13:48:05;5.88;;;3.00;;
73776;SDS011;62088;50.240;2.696;2023-04-26T13:50:32;6.15;;;3.00;;
73776;SDS011;62088;50.240;2.696;2023-04-26T13:53:01;6.05;;;2.60;;
73776;SDS011;62088;50.240;2.696;2023-04-26T13:55:29;7.30;;;3.47;;
73776;SDS011;62088;50.240;2.696;2023-04-26T13:57:57;7.88;;;3.22;;
73776;SDS011;62088;50.240;2.696;2023-04-26T14:00:24;5.70;;;3.20;;
73776;SDS011;62088;50.240;2.696;2023-04-26T14:02:51;7.18;;;3.20;;
73776;SDS011;62088;50.240;2.696;2023-04-26T14:05:19;7.43;;;3.50;;
73776;SDS011;62088;50.240;2.696;2023-04-26T14:07:47;7.88;;;3.50;;
73776;SDS011;62088;50.240;2.696;2023-04-26T14:10:14;9.38;;;3.60;;
73776;SDS011;62088;50.240;2.696;2023-04-26T14:12:41;8.60;;;3.10;;
73776;SDS011;62088;50.240;2.696;2023-04-26T14:15:08;5.45;;;2.83;;
73776;SDS011;62088;50.240;2.696;2023-04-26T14:17:35;7.07;;;3.20;;
73776;SDS011;62088;50.240;2.696;2023-04-26T14:20:03;7.45;;;3.40;;
73776;SDS011;62088;50.240;2.696;2023-04-26T14:22:30;6.10;;;2.88;;
73776;SDS011;62088;50.240;2.696;2023-04-26T14:24:57;6.90;;;2.85;;
73776;SDS011;62088;50.240;2.696;2023-04-26T14:27:24;7.38;;;2.88;;
73776;SDS011;62088;50.240;2.696;2023-04-26T14:29:52;8.93;;;3.25;;
73776;SDS011;62088;50.240;2.696;2023-04-26T14:32:20;8.10;;;3.00;;
73776;SDS011;62088;50.240;2.696;2023-04-26T14:34:47;7.95;;;3.15;;
73776;SDS011;62088;50.240;2.696;2023-04-26T14:37:14;7.03;;;2.85;;
73776;SDS011;62088;50.240;2.696;2023-04-26T14:39:41;5.18;;;2.90;;
73776;SDS011;62088;50.240;2.696;2023-04-26T14:42:08;10.25;;;3.80;;
73776;SDS011;62088;50.240;2.696;2023-04-26T14:44:36;9.15;;;3.65;;
73776;SDS011;62088;50.240;2.696;2023-04-26T14:47:03;14.30;;;4.13;;
73776;SDS011;62088;50.240;2.696;2023-04-26T14:49:30;9.18;;;3.55;;
73776;SDS011;62088;50.240;2.696;2023-04-26T14:51:57;8.48;;;3.40;;
73776;SDS011;62088;50.240;2.696;2023-04-26T14:54:24;6.55;;;3.08;;
73776;SDS011;62088;50.240;2.696;2023-04-26T14:56:51;6.75;;;3.15;;
73776;SDS011;62088;50.240;2.696;2023-04-26T14:59:19;9.00;;;3.53;;
73776;SDS011;62088;50.240;2.696;2023-04-26T15:01:46;8.13;;;3.40;;
73776;SDS011;62088;50.240;2.696;2023-04-26T15:04:14;8.73;;;3.33;;
73776;SDS011;62088;50.240;2.696;2023-04-26T15:06:41;9.13;;;3.40;;
73776;SDS011;62088;50.240;2.696;2023-04-26T15:09:08;8.50;;;2.97;;
73776;SDS011;62088;50.240;2.696;2023-04-26T15:11:36;9.35;;;3.28;;
73776;SDS011;62088;50.240;2.696;2023-04-26T15:14:03;6.32;;;3.13;;
73776;SDS011;62088;50.240;2.696;2023-04-26T15:16:30;6.40;;;3.65;;
73776;SDS011;62088;50.240;2.696;2023-04-26T15:18:57;8.07;;;3.47;;
73776;SDS011;62088;50.240;2.696;2023-04-26T15:21:24;8.50;;;3.70;;